Metar Aviation Weather Data     YSSY Sydney Kingsford Smith International Airport
Temperature
15°C Temperature
12°C Dewpoint
82% Humidity



Wind
13 KM/H
8 MPH
4 M/S
7 KTS



320°
NW
Current Conditions

Haze Haze
Pressure 1023.03 (hPa) - 30.21 (inHg)
Visibility 6 (mile) - 9.7 (km)
Airport
Airport-code YSSY

Location: Sydney Kingsford Smith International Airport
Distance: 53 (km)

Metar:
YSSY 152100Z 32007KT 9999 FEW012 15/12 Q1023 HZ

Time: 16-04-2024 07:00 AEST